createdAt,value
2022-08-24T00:01:57.343Z,13.65
2022-08-24T00:04:25.825Z,12.98
2022-08-24T00:06:53.937Z,13.02
2022-08-24T00:09:22.099Z,14.50
2022-08-24T00:11:50.145Z,14.60
2022-08-24T00:14:20.098Z,13.77
2022-08-24T00:16:50.314Z,13.32
2022-08-24T00:19:18.747Z,12.38
2022-08-24T00:21:46.941Z,12.93
2022-08-24T00:24:15.050Z,16.23
2022-08-24T00:26:43.089Z,13.80
2022-08-24T00:29:11.147Z,13.35
2022-08-24T00:31:40.724Z,13.68
2022-08-24T00:34:08.801Z,12.35
2022-08-24T00:36:37.578Z,13.18
2022-08-24T00:39:06.621Z,12.02
2022-08-24T00:41:35.117Z,11.45
2022-08-24T00:44:06.065Z,12.05
2022-08-24T00:46:43.553Z,11.13
2022-08-24T00:49:19.256Z,9.77
2022-08-24T00:51:55.535Z,10.05
2022-08-24T00:54:26.882Z,11.00
2022-08-24T00:56:58.113Z,10.70
2022-08-24T00:59:30.475Z,9.57
2022-08-24T01:02:12.210Z,9.63
2022-08-24T01:04:50.001Z,9.88
2022-08-24T01:07:18.452Z,11.18
2022-08-24T01:09:46.885Z,10.85
2022-08-24T01:12:14.987Z,10.40
2022-08-24T01:14:43.383Z,10.73
2022-08-24T01:17:31.718Z,10.88
2022-08-24T01:20:05.769Z,9.90
2022-08-24T01:22:47.634Z,11.52
2022-08-24T01:25:17.864Z,9.45
2022-08-24T01:27:47.314Z,10.77
2022-08-24T01:30:18.162Z,8.75
2022-08-24T01:32:57.329Z,9.30
2022-08-24T01:35:25.519Z,10.80
2022-08-24T01:37:55.923Z,9.73
2022-08-24T01:40:32.531Z,10.45
2022-08-24T01:43:00.580Z,10.70
2022-08-24T01:45:28.841Z,10.90
2022-08-24T01:47:58.549Z,12.20
2022-08-24T01:50:27.019Z,11.88
2022-08-24T01:53:04.851Z,9.73
2022-08-24T01:55:36.023Z,9.40
2022-08-24T01:58:05.472Z,12.55
2022-08-24T02:00:34.869Z,12.05
2022-08-24T02:03:03.703Z,12.10
2022-08-24T02:05:31.932Z,10.73
2022-08-24T02:08:00.180Z,10.70
2022-08-24T02:10:29.535Z,10.45
2022-08-24T02:13:00.250Z,10.50
2022-08-24T02:15:30.934Z,11.60
2022-08-24T02:18:00.216Z,11.82
2022-08-24T02:20:30.193Z,11.88
2022-08-24T02:22:58.634Z,10.65
2022-08-24T02:25:30.059Z,9.82
2022-08-24T02:27:59.908Z,11.38
2022-08-24T02:30:28.728Z,11.60
2022-08-24T02:32:57.392Z,11.65
2022-08-24T02:35:28.170Z,11.75
2022-08-24T02:37:56.446Z,11.07
2022-08-24T02:40:25.114Z,10.93
2022-08-24T02:42:53.732Z,11.02
2022-08-24T02:45:24.144Z,9.65
2022-08-24T02:47:52.174Z,11.48
2022-08-24T02:50:22.797Z,11.20
2022-08-24T02:52:50.999Z,10.43
2022-08-24T02:55:20.596Z,10.32
2022-08-24T02:57:51.911Z,10.77
2022-08-24T03:00:22.395Z,11.75
2022-08-24T03:02:55.834Z,13.32
2022-08-24T03:05:25.965Z,11.50
2022-08-24T03:07:54.653Z,14.73
2022-08-24T03:10:23.634Z,14.75
2022-08-24T03:12:51.984Z,14.52
2022-08-24T03:15:23.152Z,13.57
2022-08-24T03:17:53.987Z,16.23
2022-08-24T03:20:24.385Z,15.30
2022-08-24T03:22:53.052Z,17.50
2022-08-24T03:25:24.614Z,14.35
2022-08-24T03:27:53.402Z,12.57
2022-08-24T03:30:22.771Z,12.85
2022-08-24T03:32:51.045Z,14.20
2022-08-24T03:35:21.965Z,13.90
2022-08-24T03:37:50.901Z,12.85
2022-08-24T03:40:22.993Z,12.63
2022-08-24T03:42:54.954Z,14.15
2022-08-24T03:45:23.517Z,13.32
2022-08-24T03:47:51.973Z,15.38
2022-08-24T03:50:22.561Z,17.70
2022-08-24T03:52:51.555Z,18.38
2022-08-24T03:55:20.385Z,17.65
2022-08-24T03:57:48.932Z,17.88
2022-08-24T04:00:17.995Z,17.17
2022-08-24T04:02:55.027Z,18.38
2022-08-24T04:05:27.029Z,17.75
2022-08-24T04:07:55.617Z,18.50
2022-08-24T04:10:25.041Z,18.35
2022-08-24T04:12:54.927Z,18.85
2022-08-24T04:15:24.398Z,19.63
2022-08-24T04:17:52.856Z,18.73
2022-08-24T04:20:20.997Z,19.48
2022-08-24T04:22:53.785Z,18.05
2022-08-24T04:25:25.215Z,17.58
2022-08-24T04:27:53.564Z,16.20
2022-08-24T04:30:24.670Z,16.52
2022-08-24T04:33:06.622Z,19.02
2022-08-24T04:35:39.481Z,18.13
2022-08-24T04:38:09.792Z,16.40
2022-08-24T04:40:41.276Z,14.40
2022-08-24T04:43:10.539Z,18.25
2022-08-24T04:45:41.538Z,16.90
2022-08-24T04:48:11.852Z,17.45
2022-08-24T04:50:42.763Z,16.92
2022-08-24T04:53:14.329Z,15.00
2022-08-24T04:55:49.562Z,14.88
2022-08-24T04:58:19.830Z,16.63
2022-08-24T05:00:48.349Z,16.35
2022-08-24T05:03:19.763Z,13.98
2022-08-24T05:05:50.400Z,17.85
2022-08-24T05:08:21.233Z,17.38
2022-08-24T05:10:51.120Z,17.02
2022-08-24T05:13:20.840Z,14.15
2022-08-24T05:15:49.996Z,16.92
2022-08-24T05:18:18.709Z,17.20
2022-08-24T05:20:48.517Z,15.80
2022-08-24T05:23:19.705Z,16.85
2022-08-24T05:25:49.815Z,18.27
2022-08-24T05:28:17.953Z,17.90
2022-08-24T05:30:46.269Z,16.70
2022-08-24T05:33:19.041Z,18.30
2022-08-24T05:35:47.505Z,17.13
2022-08-24T05:38:16.892Z,17.80
2022-08-24T05:40:44.935Z,17.50
2022-08-24T05:43:14.619Z,15.45
2022-08-24T05:45:44.622Z,17.02
2022-08-24T05:48:12.973Z,16.13
2022-08-24T05:50:59.575Z,17.55
2022-08-24T05:53:33.227Z,15.95
2022-08-24T05:56:04.526Z,17.63
2022-08-24T05:58:34.389Z,17.65
2022-08-24T06:01:08.390Z,17.13
2022-08-24T06:03:36.452Z,14.95
2022-08-24T06:06:08.616Z,12.93
2022-08-24T06:08:41.231Z,16.52
2022-08-24T06:11:11.060Z,16.75
2022-08-24T06:13:41.661Z,15.10
2022-08-24T06:16:21.780Z,16.30
2022-08-24T06:18:52.047Z,15.30
2022-08-24T06:21:22.977Z,14.10
2022-08-24T06:23:52.566Z,12.50
2022-08-24T06:26:40.179Z,11.10
2022-08-24T06:29:10.660Z,13.02
2022-08-24T06:31:48.447Z,13.93
2022-08-24T06:34:26.017Z,13.57
2022-08-24T06:36:54.624Z,11.90
2022-08-24T06:39:24.787Z,12.27
2022-08-24T06:41:55.010Z,11.65
2022-08-24T06:44:32.944Z,14.07
2022-08-24T06:47:09.506Z,13.57
2022-08-24T06:49:38.217Z,13.20
2022-08-24T06:52:07.116Z,14.18
2022-08-24T06:54:35.269Z,13.45
2022-08-24T06:57:04.784Z,9.50
2022-08-24T06:59:34.600Z,8.90
2022-08-24T07:02:02.888Z,8.68
2022-08-24T07:04:31.309Z,9.55
2022-08-24T07:07:21.943Z,9.00
2022-08-24T07:09:50.131Z,8.98
2022-08-24T07:12:20.949Z,7.43
2022-08-24T07:14:50.622Z,8.30
2022-08-24T07:17:19.852Z,8.20
2022-08-24T07:19:50.170Z,7.47
2022-08-24T07:22:38.182Z,6.40
2022-08-24T07:25:08.103Z,8.00
2022-08-24T07:27:36.822Z,7.50
2022-08-24T07:30:26.406Z,7.82
2022-08-24T07:32:57.717Z,8.95
2022-08-24T07:35:28.385Z,7.15
2022-08-24T07:37:56.946Z,7.47
2022-08-24T07:40:26.988Z,6.82
2022-08-24T07:42:59.555Z,7.82
2022-08-24T07:45:31.054Z,8.30
2022-08-24T07:50:38.952Z,7.30
2022-08-24T07:53:09.925Z,6.82
2022-08-24T07:55:46.279Z,8.40
2022-08-24T07:58:14.743Z,9.75
2022-08-24T08:00:48.768Z,9.50
2022-08-24T08:03:17.055Z,9.27
2022-08-24T08:05:47.508Z,8.90
2022-08-24T08:08:15.754Z,8.68
2022-08-24T08:10:44.716Z,8.55
2022-08-24T08:13:12.719Z,7.60
2022-08-24T08:15:40.783Z,6.90
2022-08-24T08:18:13.058Z,9.27
2022-08-24T08:20:43.159Z,8.77
2022-08-24T08:23:30.540Z,9.15
2022-08-24T08:26:18.966Z,10.45
2022-08-24T08:29:05.157Z,9.25
2022-08-24T08:31:36.822Z,9.80
2022-08-24T08:34:08.130Z,9.48
2022-08-24T08:36:39.519Z,9.57
2022-08-24T08:39:10.607Z,8.73
2022-08-24T08:42:05.460Z,9.88
2022-08-24T08:45:00.492Z,10.40
2022-08-24T08:48:12.240Z,9.07
2022-08-24T08:50:59.721Z,9.00
2022-08-24T08:53:55.946Z,8.82
2022-08-24T08:56:33.937Z,9.77
2022-08-24T08:59:14.130Z,9.85
2022-08-24T09:02:00.702Z,9.48
2022-08-24T09:04:55.707Z,10.32
2022-08-24T09:07:41.753Z,9.20
2022-08-24T09:10:35.855Z,8.23
2022-08-24T09:13:20.030Z,9.10
2022-08-24T09:16:09.671Z,9.60
2022-08-24T09:19:01.633Z,10.48
2022-08-24T09:21:46.143Z,10.27
2022-08-24T09:24:42.348Z,8.57
2022-08-24T09:27:38.467Z,9.80
2022-08-24T09:30:12.811Z,8.25
2022-08-24T09:32:59.102Z,8.48
2022-08-24T09:35:38.535Z,9.38
2022-08-24T09:38:18.759Z,8.73
2022-08-24T09:41:14.462Z,8.52
2022-08-24T09:44:22.429Z,8.35
2022-08-24T09:47:21.118Z,9.27
2022-08-24T09:50:18.609Z,9.07
2022-08-24T09:53:15.789Z,8.10
2022-08-24T09:56:15.406Z,9.25
2022-08-24T09:59:08.083Z,7.85
2022-08-24T10:01:43.045Z,8.70
2022-08-24T10:04:20.850Z,9.57
2022-08-24T10:07:00.920Z,9.40
2022-08-24T10:09:54.827Z,8.85
2022-08-24T10:12:35.040Z,10.10
2022-08-24T10:15:09.892Z,9.90
2022-08-24T10:17:49.662Z,8.63
2022-08-24T10:20:24.680Z,10.07
2022-08-24T10:23:07.967Z,10.02
2022-08-24T10:25:40.884Z,9.43
2022-08-24T10:28:47.037Z,7.68
2022-08-24T10:31:20.381Z,8.90
2022-08-24T10:34:05.582Z,9.55
2022-08-24T10:37:15.167Z,8.20
2022-08-24T10:40:13.028Z,10.25
2022-08-24T10:43:34.807Z,10.10
2022-08-24T10:46:35.396Z,8.55
2022-08-24T10:49:43.961Z,7.88
2022-08-24T10:52:46.625Z,7.18
2022-08-24T10:55:19.833Z,8.15
2022-08-24T10:58:00.735Z,8.15
2022-08-24T11:00:31.739Z,7.22
2022-08-24T11:03:09.493Z,8.30
2022-08-24T11:05:44.000Z,9.05
2022-08-24T11:08:19.329Z,8.82
2022-08-24T11:11:03.470Z,9.00
2022-08-24T11:13:31.871Z,7.57
2022-08-24T11:16:03.225Z,8.25
2022-08-24T11:18:49.394Z,8.95
2022-08-24T11:21:34.688Z,9.13
2022-08-24T11:24:05.026Z,8.43
2022-08-24T11:26:53.583Z,7.20
2022-08-24T11:29:23.163Z,7.47
2022-08-24T11:31:53.973Z,8.68
2022-08-24T11:34:33.475Z,8.20
2022-08-24T11:37:01.752Z,8.32
2022-08-24T11:39:35.735Z,7.32
2022-08-24T11:42:14.517Z,7.57
2022-08-24T11:44:50.396Z,7.05
2022-08-24T11:47:46.075Z,8.73
2022-08-24T11:50:29.971Z,7.57
2022-08-24T11:53:15.263Z,7.03
2022-08-24T11:55:56.225Z,8.35
2022-08-24T11:58:46.683Z,8.27
2022-08-24T12:01:20.106Z,7.90
2022-08-24T12:04:08.070Z,7.38
2022-08-24T12:06:46.282Z,7.75
2022-08-24T12:09:31.300Z,7.75
2022-08-24T12:12:10.087Z,6.75
2022-08-24T12:14:43.906Z,8.13
2022-08-24T12:17:17.276Z,7.75
2022-08-24T12:19:50.699Z,6.43
2022-08-24T12:22:21.019Z,8.57
2022-08-24T12:24:52.429Z,7.90
2022-08-24T12:27:25.422Z,7.45
2022-08-24T12:30:05.599Z,5.90
2022-08-24T12:32:40.769Z,5.90
2022-08-24T12:35:15.324Z,5.78
2022-08-24T12:37:49.153Z,7.38
2022-08-24T12:40:24.701Z,6.93
2022-08-24T12:42:57.189Z,5.82
2022-08-24T12:45:27.175Z,5.78
2022-08-24T12:48:04.246Z,5.50
2022-08-24T12:50:45.378Z,5.97
2022-08-24T12:53:46.884Z,5.85
2022-08-24T12:56:56.236Z,5.88
2022-08-24T12:59:27.694Z,6.28
2022-08-24T13:02:02.922Z,6.25
2022-08-24T13:04:45.475Z,5.85
2022-08-24T13:07:31.060Z,5.53
2022-08-24T13:10:14.580Z,5.20
2022-08-24T13:12:57.035Z,4.65
2022-08-24T13:16:03.218Z,5.47
2022-08-24T13:19:17.754Z,4.50
2022-08-24T13:21:50.760Z,5.18
2022-08-24T13:24:54.424Z,5.43
2022-08-24T13:28:07.186Z,5.90
2022-08-24T13:31:18.372Z,6.38
2022-08-24T13:33:50.179Z,5.60
2022-08-24T13:36:53.127Z,5.55
2022-08-24T13:39:54.306Z,5.50
2022-08-24T13:42:47.351Z,6.22
2022-08-24T13:45:27.202Z,6.35
2022-08-24T13:48:10.832Z,4.63
2022-08-24T13:50:47.951Z,4.50
2022-08-24T13:53:46.710Z,5.50
2022-08-24T13:56:46.864Z,6.93
2022-08-24T13:59:44.287Z,6.43
2022-08-24T14:02:28.251Z,6.78
2022-08-24T14:05:04.167Z,5.45
2022-08-24T14:07:45.279Z,5.88
2022-08-24T14:10:26.899Z,5.82
2022-08-24T14:13:04.903Z,7.45
2022-08-24T14:15:49.812Z,6.28
2022-08-24T14:18:29.999Z,6.80
2022-08-24T14:21:08.994Z,5.68
2022-08-24T14:23:52.903Z,5.65
2022-08-24T14:27:08.444Z,5.88
2022-08-24T14:29:42.896Z,5.68
2022-08-24T14:32:31.515Z,5.18
2022-08-24T14:35:23.697Z,4.63
2022-08-24T14:38:02.557Z,5.07
2022-08-24T14:40:37.170Z,5.22
2022-08-24T14:43:30.159Z,4.70
2022-08-24T14:46:09.370Z,4.57
2022-08-24T14:48:48.899Z,5.38
2022-08-24T14:51:35.771Z,4.72
2022-08-24T14:54:15.770Z,5.03
2022-08-24T14:56:57.345Z,5.15
2022-08-24T14:59:47.507Z,4.68
2022-08-24T15:02:46.336Z,5.55
2022-08-24T15:05:25.518Z,4.97
2022-08-24T15:08:00.594Z,4.53
2022-08-24T15:10:36.912Z,4.38
2022-08-24T15:13:11.773Z,4.60
2022-08-24T15:15:51.690Z,4.82
2022-08-24T15:18:36.827Z,4.45
2022-08-24T15:21:27.281Z,4.00
2022-08-24T15:24:10.104Z,5.20
2022-08-24T15:26:53.093Z,4.78
2022-08-24T15:29:24.787Z,5.13
2022-08-24T15:32:02.074Z,4.80
2022-08-24T15:34:45.654Z,4.53
2022-08-24T15:37:16.863Z,4.90
2022-08-24T15:39:45.367Z,4.43
2022-08-24T15:42:25.358Z,5.15
2022-08-24T15:44:55.003Z,4.40
2022-08-24T15:47:31.044Z,4.90
2022-08-24T15:50:02.741Z,4.47
2022-08-24T15:52:48.087Z,4.63
2022-08-24T15:55:35.738Z,4.38
2022-08-24T15:58:20.719Z,4.78
2022-08-24T16:01:06.389Z,4.70
2022-08-24T16:03:52.925Z,5.60
2022-08-24T16:06:35.506Z,4.68
2022-08-24T16:09:09.699Z,5.60
2022-08-24T16:11:41.629Z,4.38
2022-08-24T16:14:17.437Z,4.85
2022-08-24T16:16:47.401Z,3.65
2022-08-24T16:19:25.824Z,2.90
2022-08-24T16:22:01.206Z,2.47
2022-08-24T16:24:35.966Z,2.33
2022-08-24T16:27:10.794Z,2.75
2022-08-24T16:29:55.599Z,3.33
2022-08-24T16:32:34.433Z,2.88
2022-08-24T16:35:21.285Z,2.55
2022-08-24T16:37:51.215Z,2.35
2022-08-24T16:40:21.990Z,2.47
2022-08-24T16:42:53.899Z,2.20
2022-08-24T16:45:23.466Z,2.85
2022-08-24T16:47:51.686Z,4.97
2022-08-24T16:50:22.028Z,3.42
2022-08-24T16:52:55.663Z,2.53
2022-08-24T16:55:29.565Z,3.13
2022-08-24T16:58:01.149Z,2.05
2022-08-24T17:00:30.939Z,2.25
2022-08-24T17:03:00.068Z,3.10
2022-08-24T17:05:29.687Z,3.15
2022-08-24T17:08:01.030Z,3.05
2022-08-24T17:10:33.935Z,2.55
2022-08-24T17:13:06.614Z,2.33
2022-08-24T17:15:37.083Z,2.88
2022-08-24T17:18:09.894Z,2.35
2022-08-24T17:20:43.251Z,2.70
2022-08-24T17:23:13.417Z,2.60
2022-08-24T17:25:43.478Z,3.80
2022-08-24T17:28:14.303Z,3.50
2022-08-24T17:30:42.784Z,2.15
2022-08-24T17:33:11.971Z,2.10
2022-08-24T17:35:41.330Z,3.50
2022-08-24T17:38:10.531Z,2.22
2022-08-24T17:40:38.611Z,2.28
2022-08-24T17:43:10.081Z,3.08
2022-08-24T17:45:38.192Z,2.40
2022-08-24T17:48:06.519Z,1.98
2022-08-24T17:50:35.005Z,1.92
2022-08-24T17:53:05.250Z,2.53
2022-08-24T17:55:33.349Z,2.15
2022-08-24T17:58:03.333Z,2.65
2022-08-24T18:00:33.722Z,2.05
2022-08-24T18:03:02.721Z,2.78
2022-08-24T18:05:32.851Z,2.40
2022-08-24T18:08:01.943Z,2.67
2022-08-24T18:10:34.105Z,2.42
2022-08-24T18:13:04.374Z,2.28
2022-08-24T18:15:36.496Z,2.70
2022-08-24T18:18:09.782Z,2.15
2022-08-24T18:20:41.512Z,2.78
2022-08-24T18:23:11.582Z,2.58
2022-08-24T18:25:45.039Z,2.25
2022-08-24T18:28:16.378Z,2.13
2022-08-24T18:30:46.118Z,2.20
2022-08-24T18:33:32.840Z,2.40
2022-08-24T18:36:23.226Z,2.58
2022-08-24T18:38:54.409Z,2.90
2022-08-24T18:41:24.954Z,3.38
2022-08-24T18:43:54.365Z,3.58
2022-08-24T18:46:25.030Z,3.80
2022-08-24T18:48:54.507Z,2.58
2022-08-24T18:51:24.057Z,3.35
2022-08-24T18:54:03.403Z,2.67
2022-08-24T18:56:34.403Z,3.15
2022-08-24T18:59:05.645Z,3.50
2022-08-24T19:01:57.084Z,3.25
2022-08-24T19:04:30.248Z,2.25
2022-08-24T19:07:02.265Z,2.42
2022-08-24T19:09:34.499Z,2.33
2022-08-24T19:12:05.189Z,1.60
2022-08-24T19:14:35.905Z,1.40
2022-08-24T19:17:06.558Z,1.80
2022-08-24T19:19:35.424Z,2.38
2022-08-24T19:22:04.365Z,1.67
2022-08-24T19:24:35.675Z,2.00
2022-08-24T19:27:04.739Z,1.88
2022-08-24T19:32:29.271Z,2.08
2022-08-24T19:35:02.747Z,2.22
2022-08-24T19:37:31.764Z,1.95
2022-08-24T19:40:04.322Z,1.73
2022-08-24T19:42:32.942Z,2.03
2022-08-24T19:45:21.585Z,2.30
2022-08-24T19:47:51.451Z,1.92
2022-08-24T19:50:21.471Z,2.80
2022-08-24T19:52:50.126Z,2.28
2022-08-24T19:55:18.644Z,2.13
2022-08-24T19:58:06.778Z,1.98
2022-08-24T20:00:42.683Z,1.80
2022-08-24T20:03:19.547Z,1.70
2022-08-24T20:05:47.795Z,2.15
2022-08-24T20:08:19.005Z,2.22
2022-08-24T20:10:53.058Z,1.70
2022-08-24T20:13:21.457Z,2.10
2022-08-24T20:16:11.065Z,1.38
2022-08-24T20:18:51.737Z,2.10
2022-08-24T20:24:25.811Z,2.33
2022-08-24T20:26:54.876Z,2.80
2022-08-24T20:29:25.046Z,2.30
2022-08-24T20:31:56.441Z,2.08
2022-08-24T20:34:26.990Z,2.08
2022-08-24T20:36:55.126Z,2.30
2022-08-24T20:39:28.440Z,2.65
2022-08-24T20:41:57.864Z,2.08
2022-08-24T20:44:26.265Z,2.13
2022-08-24T20:46:57.560Z,2.63
2022-08-24T20:49:29.056Z,2.70
2022-08-24T20:51:57.307Z,2.70
2022-08-24T20:54:50.921Z,2.60
2022-08-24T20:57:48.299Z,3.00
2022-08-24T21:00:44.522Z,2.50
2022-08-24T21:03:15.958Z,2.50
2022-08-24T21:05:54.265Z,2.40
2022-08-24T21:08:25.784Z,2.25
2022-08-24T21:10:55.975Z,2.80
2022-08-24T21:13:36.782Z,2.72
2022-08-24T21:16:18.824Z,2.95
2022-08-24T21:18:52.211Z,2.83
2022-08-24T21:21:32.311Z,2.80
2022-08-24T21:24:00.980Z,2.30
2022-08-24T21:26:47.605Z,2.85
2022-08-24T21:29:19.364Z,2.60
2022-08-24T21:32:04.072Z,2.65
2022-08-24T21:34:44.095Z,3.08
2022-08-24T21:37:16.312Z,2.50
2022-08-24T21:39:48.686Z,2.85
2022-08-24T21:42:17.423Z,2.92
2022-08-24T21:44:48.455Z,2.38
2022-08-24T21:47:18.866Z,2.70
2022-08-24T21:49:46.940Z,2.15
2022-08-24T21:52:16.391Z,2.65
2022-08-24T21:54:46.699Z,2.88
2022-08-24T21:57:15.322Z,2.95
2022-08-24T21:59:44.218Z,2.53
2022-08-24T22:02:13.347Z,2.33
2022-08-24T22:04:44.791Z,2.38
2022-08-24T22:07:13.286Z,2.78
2022-08-24T22:09:42.689Z,2.38
2022-08-24T22:12:10.722Z,2.50
2022-08-24T22:14:38.923Z,2.60
2022-08-24T22:17:09.790Z,2.90
2022-08-24T22:19:38.288Z,2.58
2022-08-24T22:22:06.297Z,2.08
2022-08-24T22:24:34.377Z,2.88
2022-08-24T22:27:03.810Z,2.97
2022-08-24T22:29:31.839Z,3.10
2022-08-24T22:31:59.845Z,2.60
2022-08-24T22:34:27.842Z,2.88
2022-08-24T22:36:59.211Z,2.65
2022-08-24T22:39:27.255Z,2.42
2022-08-24T22:41:55.261Z,2.55
2022-08-24T22:44:25.220Z,2.20
2022-08-24T22:46:55.602Z,2.80
2022-08-24T22:49:26.330Z,2.70
2022-08-24T22:51:54.320Z,2.60
2022-08-24T22:54:22.601Z,2.83
2022-08-24T22:56:54.306Z,2.95
2022-08-24T22:59:26.630Z,3.10
2022-08-24T23:01:56.199Z,2.80
2022-08-24T23:04:28.563Z,3.22
2022-08-24T23:06:56.791Z,2.58
2022-08-24T23:09:25.514Z,2.42
2022-08-24T23:11:53.613Z,2.30
2022-08-24T23:14:23.065Z,2.45
2022-08-24T23:16:53.281Z,2.92
2022-08-24T23:19:40.952Z,2.47
2022-08-24T23:22:12.503Z,2.90
2022-08-24T23:24:42.586Z,2.60
2022-08-24T23:27:13.444Z,2.83
2022-08-24T23:29:41.952Z,2.25
2022-08-24T23:32:11.358Z,2.33
2022-08-24T23:34:39.403Z,2.42
2022-08-24T23:37:07.502Z,2.60
2022-08-24T23:39:36.533Z,2.53
2022-08-24T23:42:05.937Z,2.80
2022-08-24T23:44:34.694Z,2.80
2022-08-24T23:47:02.730Z,2.67
2022-08-24T23:49:32.518Z,2.63
2022-08-24T23:52:01.030Z,2.55
2022-08-24T23:54:29.751Z,2.80
2022-08-24T23:56:58.230Z,2.78
2022-08-24T23:59:29.261Z,2.47
